Time,TemperatureF,DewpointF,PressureIn,WindDirection,WindDirectionDegrees,WindSpeedMPH,WindSpeedGustMPH,Humidity,HourlyPrecipIn,Conditions,Clouds,dailyrainin,SolarRadiationWatts/m^2,SoftwareType,DateUTC
2014-07-13 00:11:00,78.0,48.0,29.88,NW,324,1.0,5.0,35,0.00,,,0.00,0,weatherlink.com 1.10,2014-07-13 07:11:00,
2014-07-13 00:26:00,76.6,48.0,29.89,WNW,300,4.0,5.0,37,0.00,,,0.00,0,weatherlink.com 1.10,2014-07-13 07:26:00,
2014-07-13 00:41:00,77.6,49.0,29.88,NW,324,5.0,8.0,36,0.00,,,0.00,0,weatherlink.com 1.10,2014-07-13 07:41:00,
2014-07-13 00:57:00,77.6,49.0,29.88,West,264,3.0,7.0,36,0.00,,,0.00,0,weatherlink.com 1.10,2014-07-13 07:57:00,
2014-07-13 01:12:00,77.3,48.0,29.88,NW,313,5.0,8.0,36,0.00,,,0.00,0,weatherlink.com 1.10,2014-07-13 08:12:00,
2014-07-13 01:27:00,76.7,48.0,29.88,WNW,297,4.0,5.0,37,0.00,,,0.00,0,weatherlink.com 1.10,2014-07-13 08:27:00,
2014-07-13 01:42:00,76.3,48.0,29.88,WSW,251,4.0,9.0,37,0.00,,,0.00,0,weatherlink.com 1.10,2014-07-13 08:42:00,
2014-07-13 01:57:00,75.6,48.0,29.88,NW,306,5.0,7.0,38,0.00,,,0.00,0,weatherlink.com 1.10,2014-07-13 08:57:00,
2014-07-13 02:12:00,75.1,48.0,29.87,WNW,284,5.0,7.0,39,0.00,,,0.00,0,weatherlink.com 1.10,2014-07-13 09:12:00,
2014-07-13 02:27:00,74.5,48.0,29.88,WNW,292,4.0,8.0,39,0.00,,,0.00,0,weatherlink.com 1.10,2014-07-13 09:27:00,
2014-07-13 02:42:00,73.9,48.0,29.88,NW,320,2.0,4.0,40,0.00,,,0.00,0,weatherlink.com 1.10,2014-07-13 09:42:00,
2014-07-13 02:57:00,71.0,51.0,29.88,NE,53,0.0,4.0,49,0.00,,,0.00,0,weatherlink.com 1.10,2014-07-13 09:57:00,
2014-07-13 03:12:00,69.6,49.0,29.88,NNE,30,0.0,2.0,49,0.00,,,0.00,0,weatherlink.com 1.10,2014-07-13 10:12:00,
2014-07-13 03:27:00,69.7,50.0,29.88,NE,51,0.0,2.0,50,0.00,,,0.00,0,weatherlink.com 1.10,2014-07-13 10:27:00,
2014-07-13 03:42:00,68.4,50.0,29.88,NE,51,0.0,0.0,52,0.00,,,0.00,0,weatherlink.com 1.10,2014-07-13 10:42:00,
2014-07-13 03:57:00,67.7,50.0,29.88,NE,51,0.0,0.0,54,0.00,,,0.00,0,weatherlink.com 1.10,2014-07-13 10:57:00,
2014-07-13 04:12:00,65.0,49.0,29.88,NE,51,0.0,0.0,57,0.00,,,0.00,0,weatherlink.com 1.10,2014-07-13 11:12:00,
2014-07-13 04:27:00,65.0,52.0,29.88,NE,51,0.0,0.0,62,0.00,,,0.00,0,weatherlink.com 1.10,2014-07-13 11:27:00,
2014-07-13 04:42:00,64.4,51.0,29.89,NE,51,0.0,0.0,63,0.00,,,0.00,0,weatherlink.com 1.10,2014-07-13 11:42:00,
2014-07-13 04:57:00,63.8,51.0,29.89,NE,51,0.0,0.0,63,0.00,,,0.00,0,weatherlink.com 1.10,2014-07-13 11:57:00,
2014-07-13 05:12:00,62.9,50.0,29.89,NE,51,0.0,0.0,64,0.00,,,0.00,0,weatherlink.com 1.10,2014-07-13 12:12:00,
2014-07-13 05:27:00,62.0,50.0,29.89,NE,51,0.0,0.0,66,0.00,,,0.00,0,weatherlink.com 1.10,2014-07-13 12:27:00,
2014-07-13 05:42:00,62.9,50.0,29.89,NE,51,0.0,0.0,64,0.00,,,0.00,0,weatherlink.com 1.10,2014-07-13 12:42:00,
2014-07-13 05:57:00,63.2,51.0,29.89,NE,51,0.0,0.0,65,0.00,,,0.00,11,weatherlink.com 1.10,2014-07-13 12:57:00,
2014-07-13 06:12:00,63.1,52.0,29.90,NE,51,0.0,0.0,67,0.00,,,0.00,18,weatherlink.com 1.10,2014-07-13 13:12:00,
2014-07-13 06:27:00,63.8,52.0,29.90,NE,51,0.0,1.0,66,0.00,,,0.00,33,weatherlink.com 1.10,2014-07-13 13:27:00,
2014-07-13 06:42:00,65.4,53.0,29.91,NE,51,0.0,0.0,64,0.00,,,0.00,70,weatherlink.com 1.10,2014-07-13 13:42:00,
2014-07-13 06:57:00,67.7,53.0,29.90,NE,51,0.0,1.0,60,0.00,,,0.00,120,weatherlink.com 1.10,2014-07-13 13:57:00,
2014-07-13 07:13:00,69.2,52.0,29.90,NE,51,0.0,1.0,55,0.00,,,0.00,178,weatherlink.com 1.10,2014-07-13 14:13:00,
2014-07-13 07:28:00,70.2,52.0,29.91,SSW,198,1.0,1.0,53,0.00,,,0.00,237,weatherlink.com 1.10,2014-07-13 14:28:00,
2014-07-13 07:43:00,70.8,51.0,29.91,SSW,198,1.0,2.0,50,0.00,,,0.00,283,weatherlink.com 1.10,2014-07-13 14:43:00,
2014-07-13 07:58:00,72.5,51.0,29.90,SSW,198,0.0,3.0,47,0.00,,,0.00,332,weatherlink.com 1.10,2014-07-13 14:58:00,
2014-07-13 08:13:00,74.0,52.0,29.90,SSW,205,1.0,4.0,46,0.00,,,0.00,381,weatherlink.com 1.10,2014-07-13 15:13:00,
2014-07-13 08:28:00,75.5,51.0,29.90,SSW,194,1.0,2.0,42,0.00,,,0.00,427,weatherlink.com 1.10,2014-07-13 15:28:00,
2014-07-13 08:43:00,76.8,51.0,29.90,SSW,197,0.0,2.0,40,0.00,,,0.00,476,weatherlink.com 1.10,2014-07-13 15:43:00,
2014-07-13 08:58:00,77.8,51.0,29.89,SSW,211,0.0,3.0,39,0.00,,,0.00,520,weatherlink.com 1.10,2014-07-13 15:58:00,
2014-07-13 09:13:00,80.0,51.0,29.89,SSW,193,0.0,3.0,37,0.00,,,0.00,566,weatherlink.com 1.10,2014-07-13 16:13:00,
2014-07-13 09:28:00,81.4,50.0,29.89,SE,134,2.0,4.0,34,0.00,,,0.00,612,weatherlink.com 1.10,2014-07-13 16:28:00,
2014-07-13 09:43:00,82.8,49.0,29.88,South,186,1.0,3.0,31,0.00,,,0.00,652,weatherlink.com 1.10,2014-07-13 16:43:00,
2014-07-13 09:58:00,83.0,48.0,29.88,SE,142,2.0,4.0,29,0.00,,,0.00,693,weatherlink.com 1.10,2014-07-13 16:58:00,
2014-07-13 10:13:00,86.7,49.0,29.88,ESE,109,0.0,3.0,27,0.00,,,0.00,731,weatherlink.com 1.10,2014-07-13 17:13:00,
2014-07-13 10:28:00,88.3,48.0,29.87,ESE,109,0.0,2.0,25,0.00,,,0.00,766,weatherlink.com 1.10,2014-07-13 17:28:00,
2014-07-13 10:44:00,88.1,49.0,29.86,South,190,1.0,4.0,26,0.00,,,0.00,798,weatherlink.com 1.10,2014-07-13 17:44:00,
2014-07-13 10:59:00,89.4,49.0,29.86,SE,125,3.0,4.0,25,0.00,,,0.00,828,weatherlink.com 1.10,2014-07-13 17:59:00,
2014-07-13 11:14:00,92.3,52.0,29.85,SE,142,2.0,3.0,25,0.00,,,0.00,854,weatherlink.com 1.10,2014-07-13 18:14:00,
2014-07-13 11:29:00,91.2,49.0,29.85,SW,215,1.0,5.0,23,0.00,,,0.00,882,weatherlink.com 1.10,2014-07-13 18:29:00,
2014-07-13 11:44:00,91.9,50.0,29.84,ESE,109,0.0,4.0,24,0.00,,,0.00,904,weatherlink.com 1.10,2014-07-13 18:44:00,
2014-07-13 11:59:00,93.7,51.0,29.84,ESE,113,0.0,4.0,23,0.00,,,0.00,923,weatherlink.com 1.10,2014-07-13 18:59:00,
2014-07-13 12:14:00,93.3,47.0,29.83,SW,215,0.0,5.0,20,0.00,,,0.00,939,weatherlink.com 1.10,2014-07-13 19:14:00,
2014-07-13 12:29:00,97.0,53.0,29.82,WNW,298,1.0,3.0,23,0.00,,,0.00,942,weatherlink.com 1.10,2014-07-13 19:29:00,
2014-07-13 12:44:00,96.7,48.0,29.82,NE,36,1.0,6.0,19,0.00,,,0.00,962,weatherlink.com 1.10,2014-07-13 19:44:00,
2014-07-13 12:59:00,96.4,46.0,29.81,SE,124,0.0,10.0,18,0.00,,,0.00,958,weatherlink.com 1.10,2014-07-13 19:59:00,
2014-07-13 13:14:00,97.7,44.0,29.81,SW,215,2.0,9.0,16,0.00,,,0.00,960,weatherlink.com 1.10,2014-07-13 20:14:00,
2014-07-13 13:29:00,97.6,44.0,29.80,ESE,109,2.0,7.0,16,0.00,,,0.00,954,weatherlink.com 1.10,2014-07-13 20:29:00,
2014-07-13 13:44:00,99.3,46.0,29.79,ENE,74,1.0,4.0,16,0.00,,,0.00,953,weatherlink.com 1.10,2014-07-13 20:44:00,
2014-07-13 13:59:00,98.3,43.0,29.79,NW,305,0.0,7.0,15,0.00,,,0.00,833,weatherlink.com 1.10,2014-07-13 20:59:00,
2014-07-13 14:14:00,99.0,44.0,29.79,West,264,2.0,7.0,15,0.00,,,0.00,962,weatherlink.com 1.10,2014-07-13 21:14:00,
2014-07-13 14:29:00,101.0,44.0,29.78,WNW,289,2.0,7.0,14,0.00,,,0.00,921,weatherlink.com 1.10,2014-07-13 21:29:00,
2014-07-13 14:44:00,101.3,44.0,29.77,NW,322,1.0,6.0,14,0.00,,,0.00,895,weatherlink.com 1.10,2014-07-13 21:44:00,
2014-07-13 14:59:00,100.3,43.0,29.77,NE,42,0.0,9.0,14,0.00,,,0.00,865,weatherlink.com 1.10,2014-07-13 21:59:00,
2014-07-13 15:14:00,98.8,45.0,29.76,East,100,2.0,5.0,16,0.00,,,0.00,802,weatherlink.com 1.10,2014-07-13 22:14:00,
2014-07-13 15:29:00,99.5,41.0,29.75,SE,142,1.0,5.0,13,0.00,,,0.00,817,weatherlink.com 1.10,2014-07-13 22:29:00,
2014-07-13 15:44:00,99.8,43.0,29.75,SE,132,3.0,8.0,14,0.00,,,0.00,788,weatherlink.com 1.10,2014-07-13 22:44:00,
2014-07-13 16:00:00,99.5,41.0,29.74,SW,221,1.0,9.0,13,0.00,,,0.00,761,weatherlink.com 1.10,2014-07-13 23:00:00,
2014-07-13 16:15:00,100.0,45.0,29.74,SSW,198,1.0,11.0,15,0.00,,,0.00,754,weatherlink.com 1.10,2014-07-13 23:15:00,
2014-07-13 16:30:00,101.0,44.0,29.73,SSW,201,2.0,9.0,14,0.00,,,0.00,712,weatherlink.com 1.10,2014-07-13 23:30:00,
2014-07-13 16:45:00,101.0,44.0,29.73,SSW,202,1.0,6.0,14,0.00,,,0.00,663,weatherlink.com 1.10,2014-07-13 23:45:00,